Time;durP1;ratioP1;P1;durP2;ratioP2;P2;SDS_P1;SDS_P2;PMS_P1;PMS_P2;Temp;Humidity;BMP_temperature;BMP_pressure;BME280_temperature;BME280_humidity;BME280_pressure;Samples;Min_cycle;Max_cycle;Signal;HPM_P1;HPM_P2
2021/09/24 00:02:09;;;;;;;12.37;2.83;;;;;;;;;;4332910;33;20162;-76
2021/09/24 00:04:36;;;;;;;7.03;3.05;;;;;;;;;;4343826;33;20191;-77
2021/09/24 00:07:02;;;;;;;7.87;2.65;;;;;;;;;;4327786;33;20639;-77
2021/09/24 00:09:27;;;;;;;8.82;2.50;;;;;;;;;;4330630;33;20278;-76
2021/09/24 00:11:53;;;;;;;6.65;3.03;;;;;;;;;;4331379;33;20161;-76
2021/09/24 00:14:18;;;;;;;6.37;2.40;;;;;;;;;;4331895;33;20163;-76
2021/09/24 00:16:43;;;;;;;9.57;2.72;;;;;;;;;;4331668;33;20243;-77
2021/09/24 00:19:09;;;;;;;8.45;2.75;;;;;;;;;;4328796;33;20193;-77
2021/09/24 00:21:34;;;;;;;10.40;2.58;;;;;;;;;;4329653;33;20185;-77
2021/09/24 00:24:00;;;;;;;6.78;2.40;;;;;;;;;;4318790;33;20159;-76
2021/09/24 00:26:29;;;;;;;8.23;2.60;;;;;;;;;;4329501;33;20486;-77
2021/09/24 00:29:03;;;;;;;4.60;2.12;;;;;;;;;;4332607;33;20155;-77
2021/09/24 00:31:29;;;;;;;6.32;2.47;;;;;;;;;;4332053;33;20142;-77
2021/09/24 00:33:57;;;;;;;5.00;2.20;;;;;;;;;;4331948;33;20567;-77
2021/09/24 00:36:22;;;;;;;7.43;2.50;;;;;;;;;;4332405;33;20159;-76
2021/09/24 00:38:50;;;;;;;9.27;2.50;;;;;;;;;;4318823;33;20497;-76
2021/09/24 00:41:21;;;;;;;10.38;2.78;;;;;;;;;;4317516;33;20260;-76
2021/09/24 00:43:46;;;;;;;11.00;2.65;;;;;;;;;;4322458;33;20191;-76
2021/09/24 00:46:12;;;;;;;10.23;2.30;;;;;;;;;;4332514;33;20198;-77
2021/09/24 00:48:37;;;;;;;8.13;2.45;;;;;;;;;;4332186;33;20190;-76
2021/09/24 00:51:02;;;;;;;10.60;2.45;;;;;;;;;;4331577;33;20158;-76
2021/09/24 00:53:31;;;;;;;7.03;2.45;;;;;;;;;;4332277;33;20148;-77
2021/09/24 00:55:58;;;;;;;7.00;2.80;;;;;;;;;;4331901;33;20368;-77
2021/09/24 00:58:23;;;;;;;9.30;2.72;;;;;;;;;;4331553;33;20147;-76
2021/09/24 01:00:48;;;;;;;10.45;2.90;;;;;;;;;;4331894;33;20252;-77
2021/09/24 01:03:14;;;;;;;9.18;2.45;;;;;;;;;;4332199;33;20632;-77
2021/09/24 01:05:41;;;;;;;7.87;2.70;;;;;;;;;;4331971;33;20163;-76
2021/09/24 01:08:07;;;;;;;13.30;2.60;;;;;;;;;;4322696;33;20214;-77
2021/09/24 01:10:32;;;;;;;7.28;2.47;;;;;;;;;;4317515;33;20540;-76
2021/09/24 01:12:58;;;;;;;8.35;2.47;;;;;;;;;;4317201;33;20171;-77
2021/09/24 01:15:23;;;;;;;5.68;2.30;;;;;;;;;;4317500;33;20176;-76
2021/09/24 01:17:57;;;;;;;7.03;2.33;;;;;;;;;;4317205;33;20453;-76
2021/09/24 01:20:26;;;;;;;6.50;2.60;;;;;;;;;;4331751;33;20577;-76
2021/09/24 01:22:55;;;;;;;8.68;2.60;;;;;;;;;;4332162;33;20569;-76
2021/09/24 01:25:24;;;;;;;8.68;2.40;;;;;;;;;;4322964;33;20206;-76
2021/09/24 01:27:50;;;;;;;6.62;2.20;;;;;;;;;;4331790;33;20194;-76
2021/09/24 01:30:16;;;;;;;7.72;2.30;;;;;;;;;;4331721;33;20213;-76
2021/09/24 01:32:45;;;;;;;7.22;2.20;;;;;;;;;;4332000;33;20231;-77
2021/09/24 01:35:10;;;;;;;5.57;2.40;;;;;;;;;;4328896;33;20159;-76
2021/09/24 01:37:36;;;;;;;9.45;2.20;;;;;;;;;;4318257;33;20806;-76
2021/09/24 01:40:02;;;;;;;5.10;2.35;;;;;;;;;;4345221;33;20458;-76
2021/09/24 01:42:30;;;;;;;8.90;2.53;;;;;;;;;;4329407;33;20167;-76
2021/09/24 01:44:55;;;;;;;7.60;2.10;;;;;;;;;;4317466;33;20152;-76
2021/09/24 01:47:21;;;;;;;7.57;2.35;;;;;;;;;;4317283;33;20258;-76
2021/09/24 01:49:46;;;;;;;7.12;2.40;;;;;;;;;;4328067;33;20209;-76
2021/09/24 01:52:11;;;;;;;7.62;2.30;;;;;;;;;;4331756;33;20155;-76
2021/09/24 01:54:48;;;;;;;10.02;3.00;;;;;;;;;;4332070;33;20186;-76
2021/09/24 01:57:22;;;;;;;5.78;2.90;;;;;;;;;;4330808;33;20269;-76
2021/09/24 01:59:48;;;;;;;7.87;2.80;;;;;;;;;;4317466;33;20547;-76
2021/09/24 02:02:13;;;;;;;11.70;3.03;;;;;;;;;;4316867;33;20164;-76
2021/09/24 02:04:39;;;;;;;6.80;2.85;;;;;;;;;;4316923;33;20594;-76
2021/09/24 02:07:06;;;;;;;10.32;4.03;;;;;;;;;;4328333;33;20218;-75
2021/09/24 02:09:32;;;;;;;11.05;3.92;;;;;;;;;;4334489;33;20307;-76
2021/09/24 02:12:00;;;;;;;11.15;4.53;;;;;;;;;;4347686;33;20147;-76
2021/09/24 02:14:26;;;;;;;14.38;5.30;;;;;;;;;;4334851;33;20494;-76
2021/09/24 02:16:51;;;;;;;13.57;4.87;;;;;;;;;;4334312;33;20151;-76
2021/09/24 02:19:16;;;;;;;11.52;4.57;;;;;;;;;;4347672;33;20600;-76
2021/09/24 02:21:42;;;;;;;11.02;4.85;;;;;;;;;;4334121;33;20182;-76
2021/09/24 02:24:10;;;;;;;11.52;5.32;;;;;;;;;;4334548;33;20573;-76
2021/09/24 02:26:35;;;;;;;14.02;6.30;;;;;;;;;;4333910;33;20604;-75
2021/09/24 02:29:00;;;;;;;13.25;6.55;;;;;;;;;;4333646;33;20159;-76
2021/09/24 02:31:26;;;;;;;16.23;6.78;;;;;;;;;;4334593;33;20148;-76
2021/09/24 02:33:51;;;;;;;21.20;8.68;;;;;;;;;;4333971;33;20179;-76
2021/09/24 02:36:16;;;;;;;21.30;8.18;;;;;;;;;;4334032;33;20183;-76
2021/09/24 02:38:42;;;;;;;15.13;7.40;;;;;;;;;;4333915;33;20229;-76
2021/09/24 02:41:07;;;;;;;16.50;8.75;;;;;;;;;;4333547;33;20489;-75
2021/09/24 02:43:33;;;;;;;15.18;8.43;;;;;;;;;;4331014;33;20616;-75
2021/09/24 02:45:58;;;;;;;14.82;7.43;;;;;;;;;;4346293;33;20135;-76
2021/09/24 02:48:23;;;;;;;17.92;7.70;;;;;;;;;;4324469;33;20167;-76
2021/09/24 02:50:49;;;;;;;16.77;9.32;;;;;;;;;;4333800;33;20235;-76
2021/09/24 02:53:14;;;;;;;21.92;8.27;;;;;;;;;;4328194;33;20255;-76
2021/09/24 02:55:39;;;;;;;24.40;11.98;;;;;;;;;;4333519;33;20236;-76
2021/09/24 02:58:07;;;;;;;25.50;12.75;;;;;;;;;;4345286;33;20166;-76
2021/09/24 03:00:33;;;;;;;24.87;13.02;;;;;;;;;;4325745;33;20191;-76
2021/09/24 03:03:01;;;;;;;36.67;16.95;;;;;;;;;;4330856;33;20226;-76
2021/09/24 03:05:26;;;;;;;40.45;19.23;;;;;;;;;;4330868;33;20215;-76
2021/09/24 03:07:51;;;;;;;32.30;17.35;;;;;;;;;;4345107;33;20480;-76
2021/09/24 03:10:17;;;;;;;33.67;15.32;;;;;;;;;;4328639;33;20186;-75
2021/09/24 03:13:09;;;;;;;30.88;15.88;;;;;;;;;;4333488;33;20167;-76
2021/09/24 03:15:35;;;;;;;56.42;23.73;;;;;;;;;;4316938;33;20761;-75
2021/09/24 03:18:01;;;;;;;51.63;22.48;;;;;;;;;;4328745;33;20482;-76
2021/09/24 03:20:27;;;;;;;68.50;26.83;;;;;;;;;;4332406;33;20644;-76
2021/09/24 03:22:54;;;;;;;85.38;30.80;;;;;;;;;;4333919;33;20211;-76
2021/09/24 03:25:19;;;;;;;84.65;29.80;;;;;;;;;;4333753;33;20466;-76
2021/09/24 03:27:46;;;;;;;87.85;32.47;;;;;;;;;;4333164;33;20201;-76
2021/09/24 03:30:12;;;;;;;145.87;36.85;;;;;;;;;;4333343;33;20671;-75
2021/09/24 03:32:37;;;;;;;124.65;37.88;;;;;;;;;;4333650;33;20155;-76
2021/09/24 03:35:03;;;;;;;110.95;37.55;;;;;;;;;;4332724;33;20211;-76
2021/09/24 03:37:38;;;;;;;142.85;41.63;;;;;;;;;;4333080;33;20147;-77
2021/09/24 03:40:04;;;;;;;157.05;44.75;;;;;;;;;;4333584;33;20193;-77
2021/09/24 03:42:33;;;;;;;164.35;44.25;;;;;;;;;;4332947;33;20492;-77
2021/09/24 03:44:58;;;;;;;146.68;44.15;;;;;;;;;;4321309;33;20580;-77
2021/09/24 03:47:24;;;;;;;146.93;44.58;;;;;;;;;;4333137;33;20147;-77
2021/09/24 03:49:51;;;;;;;141.52;48.25;;;;;;;;;;4332777;33;20601;-77
2021/09/24 03:52:17;;;;;;;157.32;49.80;;;;;;;;;;4333096;33;20468;-77
2021/09/24 03:54:42;;;;;;;137.43;46.45;;;;;;;;;;4333037;33;20182;-76
2021/09/24 03:57:10;;;;;;;147.62;47.05;;;;;;;;;;4332849;33;20151;-76
2021/09/24 03:59:35;;;;;;;153.05;45.90;;;;;;;;;;4333107;33;20191;-76
2021/09/24 04:02:08;;;;;;;140.52;42.75;;;;;;;;;;4332614;33;20167;-76
2021/09/24 04:04:37;;;;;;;144.37;45.10;;;;;;;;;;4332950;33;20155;-76
2021/09/24 04:07:18;;;;;;;;;;;;;;;;;;;;;
2021/09/24 04:09:44;;;;;;;144.68;43.50;;;;;;;;;;4345903;33;20155;-76
2021/09/24 04:12:09;;;;;;;160.82;49.40;;;;;;;;;;4329580;33;20164;-76
2021/09/24 04:14:35;;;;;;;177.05;50.22;;;;;;;;;;4332454;33;20175;-76
2021/09/24 04:17:03;;;;;;;149.98;49.58;;;;;;;;;;4332612;33;20209;-76
2021/09/24 04:19:28;;;;;;;137.62;48.40;;;;;;;;;;4332894;33;20647;-75
2021/09/24 04:21:56;;;;;;;138.52;44.00;;;;;;;;;;4332454;33;20163;-76
2021/09/24 04:24:22;;;;;;;146.85;47.72;;;;;;;;;;4332402;33;20175;-77
2021/09/24 04:26:47;;;;;;;136.12;43.92;;;;;;;;;;4332524;33;20630;-76
2021/09/24 04:29:15;;;;;;;149.82;48.42;;;;;;;;;;4332342;33;20194;-78
2021/09/24 04:31:51;;;;;;;139.80;46.08;;;;;;;;;;4346403;33;20135;-76
2021/09/24 04:34:16;;;;;;;132.35;44.38;;;;;;;;;;4332583;33;20230;-76
2021/09/24 04:36:42;;;;;;;143.10;47.55;;;;;;;;;;4331993;33;20593;-76
2021/09/24 04:39:07;;;;;;;121.60;45.00;;;;;;;;;;4332844;33;20238;-77
2021/09/24 04:41:38;;;;;;;112.72;43.60;;;;;;;;;;4327384;33;20227;-76
2021/09/24 04:44:08;;;;;;;129.07;46.42;;;;;;;;;;4323723;33;20175;-76
2021/09/24 04:46:34;;;;;;;116.25;44.75;;;;;;;;;;4332347;33;20174;-76
2021/09/24 04:48:59;;;;;;;108.63;38.85;;;;;;;;;;4332393;33;20168;-76
2021/09/24 04:51:36;;;;;;;109.05;42.72;;;;;;;;;;4331826;33;20175;-76
2021/09/24 04:54:06;;;;;;;104.07;43.80;;;;;;;;;;4332553;33;20210;-76
2021/09/24 04:56:32;;;;;;;94.28;39.60;;;;;;;;;;4326297;33;20534;-75
2021/09/24 04:58:57;;;;;;;97.85;39.10;;;;;;;;;;4317980;33;20687;-76
2021/09/24 05:01:23;;;;;;;99.25;37.88;;;;;;;;;;4325656;33;20177;-76
2021/09/24 05:03:48;;;;;;;91.68;38.10;;;;;;;;;;4332978;33;20615;-77
2021/09/24 05:06:25;;;;;;;86.40;35.17;;;;;;;;;;4326025;33;20274;-77
2021/09/24 05:08:53;;;;;;;89.45;39.10;;;;;;;;;;4327630;33;20178;-76
2021/09/24 05:11:22;;;;;;;80.12;35.30;;;;;;;;;;4332160;33;20163;-76
2021/09/24 05:13:47;;;;;;;78.80;34.92;;;;;;;;;;4331637;33;20206;-75
2021/09/24 05:16:15;;;;;;;90.72;36.15;;;;;;;;;;4332061;33;20154;-77
2021/09/24 05:18:41;;;;;;;83.65;38.22;;;;;;;;;;4332522;33;20147;-77
2021/09/24 05:21:06;;;;;;;73.12;34.95;;;;;;;;;;4331555;33;20159;-77
2021/09/24 05:23:36;;;;;;;75.45;34.13;;;;;;;;;;4324052;33;20174;-76
2021/09/24 05:27:05;;;;;;;;;;;;;;;;;;;;;
2021/09/24 05:28:56;;;;;;;75.37;33.28;;;;;;;;;;4325636;33;20172;-71
2021/09/24 05:31:21;;;;;;;78.75;35.35;;;;;;;;;;4330483;33;20639;-70
2021/09/24 05:33:47;;;;;;;66.60;33.22;;;;;;;;;;4331391;33;20209;-73
2021/09/24 05:36:12;;;;;;;69.18;32.13;;;;;;;;;;4331302;33;20158;-75
2021/09/24 05:38:41;;;;;;;72.45;34.42;;;;;;;;;;4331787;33;20509;-75
2021/09/24 05:41:07;;;;;;;77.70;34.03;;;;;;;;;;4331222;33;20206;-74
2021/09/24 05:43:32;;;;;;;74.55;34.47;;;;;;;;;;4333723;33;20159;-75
2021/09/24 05:46:03;;;;;;;77.45;34.67;;;;;;;;;;4334386;33;20170;-75
2021/09/24 05:48:28;;;;;;;61.00;31.20;;;;;;;;;;4335018;33;20262;-75
2021/09/24 05:50:54;;;;;;;70.65;32.30;;;;;;;;;;4334331;33;20164;-74
2021/09/24 05:53:31;;;;;;;64.87;30.50;;;;;;;;;;4334482;33;20163;-75
2021/09/24 05:55:56;;;;;;;60.12;30.48;;;;;;;;;;4334690;33;20167;-75
2021/09/24 05:58:24;;;;;;;70.12;30.80;;;;;;;;;;4334860;33;20178;-74
2021/09/24 06:00:59;;;;;;;58.87;30.15;;;;;;;;;;4334133;33;20179;-75
2021/09/24 06:03:30;;;;;;;59.42;31.02;;;;;;;;;;4348375;33;20193;-75
2021/09/24 06:05:59;;;;;;;65.28;32.63;;;;;;;;;;4346941;33;20227;-75
2021/09/24 06:08:24;;;;;;;57.08;28.55;;;;;;;;;;4337545;33;20205;-76
2021/09/24 06:10:52;;;;;;;57.40;29.23;;;;;;;;;;4347609;33;20508;-75
2021/09/24 06:13:18;;;;;;;54.13;29.27;;;;;;;;;;4333501;33;20195;-76
2021/09/24 06:16:11;;;;;;;56.00;27.60;;;;;;;;;;4333908;33;20635;-77
2021/09/24 06:19:13;;;;;;;47.95;27.73;;;;;;;;;;4347188;33;20190;-76
2021/09/24 06:21:46;;;;;;;58.97;28.80;;;;;;;;;;4323095;33;20226;-75
2021/09/24 06:24:11;;;;;;;54.00;28.38;;;;;;;;;;4334096;33;20179;-75
2021/09/24 06:27:14;;;;;;;51.72;26.60;;;;;;;;;;4333922;33;20261;-76
2021/09/24 06:29:45;;;;;;;49.60;28.12;;;;;;;;;;4333469;33;20167;-78
2021/09/24 06:32:20;;;;;;;50.28;27.00;;;;;;;;;;4333873;33;20171;-75
2021/09/24 06:34:46;;;;;;;50.97;27.62;;;;;;;;;;4334444;33;20209;-76
2021/09/24 06:37:11;;;;;;;52.83;28.58;;;;;;;;;;4332791;33;20178;-75
2021/09/24 06:39:37;;;;;;;52.97;28.95;;;;;;;;;;4327274;33;20191;-75
2021/09/24 06:42:05;;;;;;;52.05;28.23;;;;;;;;;;4319213;33;20198;-76
2021/09/24 06:44:31;;;;;;;53.85;29.77;;;;;;;;;;4319263;33;20593;-75
2021/09/24 06:46:57;;;;;;;54.03;28.23;;;;;;;;;;4332091;33;20214;-75
2021/09/24 06:49:24;;;;;;;45.08;26.70;;;;;;;;;;4325745;33;20640;-77
2021/09/24 06:51:59;;;;;;;52.75;27.05;;;;;;;;;;4325506;33;20182;-76
2021/09/24 06:54:25;;;;;;;51.78;30.90;;;;;;;;;;4335603;33;20270;-75
2021/09/24 06:56:50;;;;;;;46.83;26.33;;;;;;;;;;4325821;33;20163;-75
2021/09/24 06:59:15;;;;;;;51.42;28.65;;;;;;;;;;4329222;33;20187;-76
2021/09/24 07:01:44;;;;;;;56.28;29.02;;;;;;;;;;4332156;33;20643;-75
2021/09/24 07:04:10;;;;;;;51.33;26.12;;;;;;;;;;4337045;33;20503;-76
2021/09/24 07:06:35;;;;;;;48.25;26.73;;;;;;;;;;4319178;33;20156;-76
2021/09/24 07:09:01;;;;;;;48.33;27.80;;;;;;;;;;4319025;33;20191;-76
2021/09/24 07:11:30;;;;;;;50.50;28.73;;;;;;;;;;4331635;33;20194;-76
2021/09/24 07:13:55;;;;;;;48.25;27.40;;;;;;;;;;4319572;33;20160;-76
2021/09/24 07:16:21;;;;;;;45.58;27.55;;;;;;;;;;4333294;33;20185;-75
2021/09/24 07:18:48;;;;;;;50.58;29.42;;;;;;;;;;4333155;33;20160;-76
2021/09/24 07:21:14;;;;;;;45.95;26.37;;;;;;;;;;4333231;33;20171;-74
2021/09/24 07:23:39;;;;;;;48.72;28.77;;;;;;;;;;4333444;33;20178;-76
2021/09/24 07:26:05;;;;;;;44.67;27.00;;;;;;;;;;4333700;33;20163;-75
2021/09/24 07:28:30;;;;;;;48.03;27.33;;;;;;;;;;4333166;33;20245;-76
2021/09/24 07:30:59;;;;;;;46.53;26.48;;;;;;;;;;4333154;33;20518;-75
2021/09/24 07:33:24;;;;;;;43.10;25.42;;;;;;;;;;4333173;33;20202;-77
2021/09/24 07:36:03;;;;;;;;;;;;;;;;;;;;;
2021/09/24 07:38:29;;;;;;;45.53;26.25;;;;;;;;;;4347028;33;20461;-76
2021/09/24 07:41:07;;;;;;;;;;;;;;;;;;;;;
2021/09/24 07:43:42;;;;;;;45.58;26.92;;;;;;;;;;4346874;33;20545;-74
2021/09/24 07:46:07;;;;;;;36.75;23.10;;;;;;;;;;4333473;33;20186;-76
2021/09/24 07:48:44;;;;;;;45.30;24.20;;;;;;;;;;4332806;33;20246;-75
2021/09/24 07:51:10;;;;;;;36.30;22.15;;;;;;;;;;4333161;33;20205;-76
2021/09/24 07:53:36;;;;;;;34.90;21.08;;;;;;;;;;4332708;33;20171;-77
2021/09/24 07:56:02;;;;;;;35.13;21.45;;;;;;;;;;4333021;33;20158;-76
2021/09/24 07:58:30;;;;;;;35.40;20.75;;;;;;;;;;4332703;33;20690;-75
2021/09/24 08:00:56;;;;;;;35.83;21.02;;;;;;;;;;4332411;33;20487;-76
2021/09/24 08:03:26;;;;;;;30.42;18.65;;;;;;;;;;4332596;33;20225;-76
2021/09/24 08:05:57;;;;;;;31.33;21.12;;;;;;;;;;4332095;33;20226;-76
2021/09/24 08:08:22;;;;;;;34.70;18.55;;;;;;;;;;4332786;33;20589;-75
2021/09/24 08:10:48;;;;;;;29.75;18.15;;;;;;;;;;4332576;33;20193;-76
2021/09/24 08:13:21;;;;;;;30.58;18.85;;;;;;;;;;4332516;33;20163;-75
2021/09/24 08:15:52;;;;;;;25.23;17.58;;;;;;;;;;4346511;33;20142;-75
2021/09/24 08:18:48;;;;;;;;;;;;;;;;;;;;;
2021/09/24 08:21:17;;;;;;;27.55;17.62;;;;;;;;;;4329792;33;20163;-75
2021/09/24 08:23:51;;;;;;;31.20;17.17;;;;;;;;;;4332448;33;20569;-76
2021/09/24 08:26:44;;;;;;;27.48;17.27;;;;;;;;;;4319695;33;20182;-76
2021/09/24 08:29:30;;;;;;;27.75;16.65;;;;;;;;;;4303567;33;20156;-77
2021/09/24 08:31:55;;;;;;;23.67;16.33;;;;;;;;;;4317571;33;20252;-76
2021/09/24 08:34:20;;;;;;;26.23;16.52;;;;;;;;;;4317321;33;20580;-76
2021/09/24 08:36:46;;;;;;;25.02;16.87;;;;;;;;;;4317827;33;20566;-76
2021/09/24 08:39:11;;;;;;;26.33;16.42;;;;;;;;;;4323343;33;20155;-76
2021/09/24 08:41:42;;;;;;;27.73;16.85;;;;;;;;;;4344898;33;20209;-75
2021/09/24 08:44:11;;;;;;;22.48;15.48;;;;;;;;;;4331805;33;20540;-75
2021/09/24 08:46:36;;;;;;;21.33;14.70;;;;;;;;;;4331905;33;20181;-76
2021/09/24 08:49:03;;;;;;;25.23;14.93;;;;;;;;;;4345439;33;20139;-75
2021/09/24 08:51:34;;;;;;;25.05;15.25;;;;;;;;;;4331800;33;20573;-75
2021/09/24 08:54:03;;;;;;;25.98;15.02;;;;;;;;;;4345801;33;20198;-75
2021/09/24 08:56:28;;;;;;;23.27;14.98;;;;;;;;;;4331969;33;20515;-76
2021/09/24 08:58:53;;;;;;;21.48;14.05;;;;;;;;;;4331646;33;20226;-76
2021/09/24 09:01:29;;;;;;;20.50;13.60;;;;;;;;;;4331832;33;20221;-76
2021/09/24 09:03:57;;;;;;;21.08;12.95;;;;;;;;;;4331835;33;20148;-76
2021/09/24 09:06:30;;;;;;;17.95;11.38;;;;;;;;;;4332088;33;20229;-76
2021/09/24 09:09:17;;;;;;;15.50;10.55;;;;;;;;;;4332141;33;20497;-76
2021/09/24 09:12:03;;;;;;;17.60;11.35;;;;;;;;;;4332261;33;20573;-77
2021/09/24 09:14:27;;;;;;;15.07;10.38;;;;;;;;;;4344944;33;20202;-76
2021/09/24 09:16:53;;;;;;;18.25;10.45;;;;;;;;;;4331853;33;20231;-75
2021/09/24 09:19:40;;;;;;;15.98;10.68;;;;;;;;;;4332576;33;20182;-76
2021/09/24 09:22:21;;;;;;;19.55;11.77;;;;;;;;;;4331589;33;20183;-75
2021/09/24 09:24:47;;;;;;;17.42;11.45;;;;;;;;;;4331703;33;20167;-74
2021/09/24 09:27:16;;;;;;;18.40;10.93;;;;;;;;;;4330685;33;20210;-75
2021/09/24 09:30:02;;;;;;;18.85;11.27;;;;;;;;;;4345537;33;20129;-76
2021/09/24 09:32:27;;;;;;;19.90;11.65;;;;;;;;;;4331249;33;20186;-76
2021/09/24 09:34:54;;;;;;;14.77;10.73;;;;;;;;;;4331554;33;20206;-77
2021/09/24 09:37:22;;;;;;;20.80;12.23;;;;;;;;;;4331396;33;20178;-76
2021/09/24 09:40:06;;;;;;;21.42;12.25;;;;;;;;;;4323989;33;20257;-76
2021/09/24 09:42:36;;;;;;;18.60;9.85;;;;;;;;;;4330986;33;20242;-76
2021/09/24 09:45:05;;;;;;;15.65;9.95;;;;;;;;;;4331659;33;20160;-76
2021/09/24 09:47:33;;;;;;;15.10;9.43;;;;;;;;;;4331474;33;20170;-77
2021/09/24 09:50:10;;;;;;;14.95;7.75;;;;;;;;;;4331684;33;20159;-76
2021/09/24 09:53:02;;;;;;;13.38;8.60;;;;;;;;;;4331619;33;20209;-76
2021/09/24 09:55:29;;;;;;;13.18;7.90;;;;;;;;;;4328421;33;20731;-75
2021/09/24 09:57:59;;;;;;;14.40;8.35;;;;;;;;;;4328359;33;20597;-76
2021/09/24 10:00:45;;;;;;;14.18;8.25;;;;;;;;;;4317722;33;20225;-75
2021/09/24 10:03:13;;;;;;;15.18;7.32;;;;;;;;;;4330436;33;20179;-75
2021/09/24 10:05:42;;;;;;;12.15;7.32;;;;;;;;;;4316662;33;20152;-76
2021/09/24 10:08:42;;;;;;;13.02;8.38;;;;;;;;;;4316528;33;20225;-75
2021/09/24 10:11:14;;;;;;;14.18;7.75;;;;;;;;;;4329864;33;20159;-75
2021/09/24 10:13:52;;;;;;;11.27;6.78;;;;;;;;;;4317169;33;20198;-77
2021/09/24 10:16:17;;;;;;;11.12;6.35;;;;;;;;;;4330514;33;20182;-76
2021/09/24 10:18:46;;;;;;;10.75;6.60;;;;;;;;;;4316817;33;20238;-75
2021/09/24 10:21:14;;;;;;;13.90;6.20;;;;;;;;;;4318957;33;20179;-76
2021/09/24 10:23:46;;;;;;;10.10;5.85;;;;;;;;;;4322144;33;20218;-76
2021/09/24 10:26:30;;;;;;;7.35;5.85;;;;;;;;;;4325378;33;20152;-76
2021/09/24 10:29:15;;;;;;;10.82;6.55;;;;;;;;;;4330548;33;20163;-76
2021/09/24 10:31:44;;;;;;;12.60;6.82;;;;;;;;;;4332434;33;20181;-77
2021/09/24 10:34:10;;;;;;;10.43;6.40;;;;;;;;;;4334077;33;20194;-76
2021/09/24 10:36:38;;;;;;;10.73;5.85;;;;;;;;;;4331832;33;20156;-76
2021/09/24 10:39:23;;;;;;;9.95;5.78;;;;;;;;;;4334062;33;20156;-76
2021/09/24 10:42:08;;;;;;;10.88;5.50;;;;;;;;;;4315797;33;20226;-77
2021/09/24 10:44:59;;;;;;;6.62;5.10;;;;;;;;;;4335861;33;20144;-76
2021/09/24 10:47:47;;;;;;;10.90;6.40;;;;;;;;;;4325637;33;20262;-75
2021/09/24 10:50:34;;;;;;;10.70;6.12;;;;;;;;;;4346224;33;20151;-76
2021/09/24 10:55:34;;;;;;;9.07;5.50;;;;;;;;;;4344739;33;20202;-77
2021/09/24 10:58:02;;;;;;;10.65;5.72;;;;;;;;;;4325732;33;20593;-78
2021/09/24 11:00:28;;;;;;;10.68;4.72;;;;;;;;;;4314230;33;20567;-77
2021/09/24 11:03:20;;;;;;;8.98;4.95;;;;;;;;;;4318845;33;20165;-73
2021/09/24 11:06:02;;;;;;;8.63;4.62;;;;;;;;;;4325420;33;20287;-76
2021/09/24 11:08:34;;;;;;;7.43;3.90;;;;;;;;;;4332151;33;20233;-76
2021/09/24 11:11:06;;;;;;;6.53;2.60;;;;;;;;;;4318726;33;20608;-75
2021/09/24 11:13:44;;;;;;;4.85;2.40;;;;;;;;;;4318740;33;20180;-75
2021/09/24 11:16:11;;;;;;;11.88;2.55;;;;;;;;;;4318661;33;20152;-76
2021/09/24 11:18:47;;;;;;;6.87;2.20;;;;;;;;;;4318532;33;20254;-76
2021/09/24 11:21:16;;;;;;;4.05;2.80;;;;;;;;;;4318305;33;20186;-73
2021/09/24 11:23:42;;;;;;;2.50;1.90;;;;;;;;;;4319093;33;20160;-76
2021/09/24 11:26:30;;;;;;;3.05;1.90;;;;;;;;;;4317927;33;20210;-76
2021/09/24 11:29:06;;;;;;;4.65;2.00;;;;;;;;;;4322356;33;20161;-76
2021/09/24 11:31:52;;;;;;;5.40;1.85;;;;;;;;;;4331373;33;20135;-75
2021/09/24 11:34:43;;;;;;;5.18;2.00;;;;;;;;;;4317968;33;20183;-76
2021/09/24 11:37:12;;;;;;;2.45;1.73;;;;;;;;;;4318767;33;20160;-76
2021/09/24 11:39:38;;;;;;;3.80;2.10;;;;;;;;;;4317955;33;20270;-75
2021/09/24 11:42:10;;;;;;;6.47;2.40;;;;;;;;;;4321891;33;20193;-75
2021/09/24 11:44:37;;;;;;;4.50;2.03;;;;;;;;;;4303888;33;20191;-76
2021/09/24 11:47:15;;;;;;;6.35;2.33;;;;;;;;;;4303577;33;20163;-76
2021/09/24 11:49:54;;;;;;;6.32;1.90;;;;;;;;;;4303864;33;20156;-76
2021/09/24 11:52:20;;;;;;;3.83;1.80;;;;;;;;;;4316598;33;20214;-75
2021/09/24 11:54:46;;;;;;;5.90;2.20;;;;;;;;;;4307475;33;20497;-76
2021/09/24 11:57:15;;;;;;;5.43;2.03;;;;;;;;;;4330787;33;20194;-76
2021/09/24 11:59:41;;;;;;;3.90;1.87;;;;;;;;;;4331224;33;20152;-76
2021/09/24 12:02:06;;;;;;;3.20;1.90;;;;;;;;;;4330740;33;20189;-75
2021/09/24 12:04:31;;;;;;;2.70;1.60;;;;;;;;;;4316973;33;20155;-76
2021/09/24 12:07:02;;;;;;;4.87;1.40;;;;;;;;;;4330626;33;20246;-76
2021/09/24 12:09:28;;;;;;;4.50;1.60;;;;;;;;;;4331082;33;20164;-76
2021/09/24 12:11:53;;;;;;;2.90;1.70;;;;;;;;;;4331213;33;20426;-76
2021/09/24 12:14:19;;;;;;;4.90;1.70;;;;;;;;;;4316375;33;20230;-76
2021/09/24 12:16:48;;;;;;;3.40;1.80;;;;;;;;;;4317955;33;20152;-76
2021/09/24 12:19:29;;;;;;;6.37;1.42;;;;;;;;;;4330775;33;20596;-74
2021/09/24 12:21:56;;;;;;;6.95;1.98;;;;;;;;;;4324677;33;20155;-76
2021/09/24 12:24:23;;;;;;;5.37;1.70;;;;;;;;;;4312396;33;20215;-75
2021/09/24 12:27:01;;;;;;;4.45;1.70;;;;;;;;;;4316954;33;20160;-76
2021/09/24 12:29:26;;;;;;;4.93;1.52;;;;;;;;;;4317728;33;20181;-76
2021/09/24 12:31:56;;;;;;;3.30;1.50;;;;;;;;;;4317907;33;20152;-76
2021/09/24 12:34:39;;;;;;;4.47;1.30;;;;;;;;;;4317771;33;20156;-77
2021/09/24 12:37:14;;;;;;;3.75;1.30;;;;;;;;;;4330422;33;20147;-77
2021/09/24 12:39:59;;;;;;;4.05;0.93;;;;;;;;;;4331303;33;20124;-76
2021/09/24 12:42:32;;;;;;;2.85;0.90;;;;;;;;;;4315794;33;20617;-77
2021/09/24 12:45:00;;;;;;;6.47;0.88;;;;;;;;;;4331063;33;20151;-76
2021/09/24 12:47:26;;;;;;;3.80;1.08;;;;;;;;;;4328579;33;20240;-77
2021/09/24 12:49:52;;;;;;;4.80;1.00;;;;;;;;;;4305542;33;20222;-76
2021/09/24 12:52:18;;;;;;;3.25;1.10;;;;;;;;;;4328322;33;20192;-75
2021/09/24 12:54:44;;;;;;;4.00;1.20;;;;;;;;;;4317238;33;20164;-75
2021/09/24 12:57:16;;;;;;;2.60;1.10;;;;;;;;;;4330533;33;20141;-76
2021/09/24 12:59:44;;;;;;;2.12;1.23;;;;;;;;;;4323667;33;20186;-77
2021/09/24 13:02:12;;;;;;;3.20;1.70;;;;;;;;;;4325060;33;20549;-75
2021/09/24 13:04:40;;;;;;;2.00;1.20;;;;;;;;;;4322892;33;20171;-77
2021/09/24 13:07:05;;;;;;;3.65;1.35;;;;;;;;;;4316757;33;20230;-78
2021/09/24 13:09:31;;;;;;;3.70;1.20;;;;;;;;;;4315698;33;20155;-75
2021/09/24 13:11:59;;;;;;;2.70;1.12;;;;;;;;;;4328774;33;20152;-75
2021/09/24 13:14:25;;;;;;;2.22;1.12;;;;;;;;;;4331068;33;20226;-77
2021/09/24 13:16:50;;;;;;;1.65;1.30;;;;;;;;;;4320509;33;20171;-77
2021/09/24 13:19:15;;;;;;;5.75;1.67;;;;;;;;;;4316839;33;20558;-77
2021/09/24 13:21:41;;;;;;;4.82;2.03;;;;;;;;;;4316396;33;20155;-76
2021/09/24 13:24:08;;;;;;;3.28;2.08;;;;;;;;;;4316436;33;20292;-78
2021/09/24 13:26:33;;;;;;;7.30;1.90;;;;;;;;;;4316513;33;20152;-77
2021/09/24 13:28:59;;;;;;;6.97;2.33;;;;;;;;;;4315817;33;20455;-77
2021/09/24 13:31:24;;;;;;;6.95;2.65;;;;;;;;;;4316099;33;20156;-77
2021/09/24 13:33:50;;;;;;;4.80;2.40;;;;;;;;;;4317329;33;20198;-78
2021/09/24 13:36:15;;;;;;;3.90;2.20;;;;;;;;;;4316289;33;20505;-76
2021/09/24 13:38:40;;;;;;;4.72;2.70;;;;;;;;;;4316693;33;20215;-78
2021/09/24 13:41:10;;;;;;;5.07;2.62;;;;;;;;;;4329337;33;20285;-77
2021/09/24 13:43:47;;;;;;;4.68;2.17;;;;;;;;;;4316788;33;20152;-77
2021/09/24 13:46:12;;;;;;;7.07;2.25;;;;;;;;;;4315828;33;20152;-76
2021/09/24 13:48:38;;;;;;;4.30;2.45;;;;;;;;;;4315897;33;20613;-77
2021/09/24 13:51:06;;;;;;;5.85;2.30;;;;;;;;;;4315840;33;20186;-79
2021/09/24 13:53:38;;;;;;;4.28;2.10;;;;;;;;;;4316514;33;20206;-77
2021/09/24 13:56:25;;;;;;;3.12;1.73;;;;;;;;;;4317082;33;20159;-79
2021/09/24 13:58:50;;;;;;;4.62;2.10;;;;;;;;;;4310448;33;20164;-77
2021/09/24 14:01:18;;;;;;;6.37;1.90;;;;;;;;;;4327360;33;20159;-77
2021/09/24 14:03:43;;;;;;;6.30;2.45;;;;;;;;;;4317819;33;20156;-77
2021/09/24 14:06:09;;;;;;;7.15;2.20;;;;;;;;;;4336625;33;20202;-78
2021/09/24 14:08:48;;;;;;;5.25;2.25;;;;;;;;;;4334070;33;20267;-79
2021/09/24 14:11:15;;;;;;;4.28;1.90;;;;;;;;;;4334183;33;20234;-78
2021/09/24 14:13:45;;;;;;;4.85;2.05;;;;;;;;;;4334488;33;20152;-78
2021/09/24 14:16:13;;;;;;;7.10;2.33;;;;;;;;;;4328237;33;20160;-78
2021/09/24 14:18:39;;;;;;;5.93;2.40;;;;;;;;;;4323491;33;20156;-78
2021/09/24 14:21:04;;;;;;;7.00;2.40;;;;;;;;;;4331857;33;20619;-78
2021/09/24 14:23:33;;;;;;;9.27;2.40;;;;;;;;;;4323917;33;20218;-78
2021/09/24 14:25:58;;;;;;;4.65;2.40;;;;;;;;;;4326377;33;20341;-78
2021/09/24 14:28:35;;;;;;;4.68;2.30;;;;;;;;;;4322020;33;20160;-77
2021/09/24 14:31:00;;;;;;;5.50;2.33;;;;;;;;;;4328277;33;20155;-77
2021/09/24 14:33:31;;;;;;;4.30;2.15;;;;;;;;;;4328523;33;20175;-77
2021/09/24 14:36:17;;;;;;;6.85;2.22;;;;;;;;;;4322392;33;20151;-78
2021/09/24 14:38:45;;;;;;;7.90;2.37;;;;;;;;;;4324994;33;20190;-77
2021/09/24 14:41:10;;;;;;;6.20;2.35;;;;;;;;;;4324134;33;20178;-77
2021/09/24 14:43:35;;;;;;;12.60;3.05;;;;;;;;;;4318928;33;20164;-77
2021/09/24 14:46:01;;;;;;;6.20;2.65;;;;;;;;;;4319125;33;20156;-78
2021/09/24 14:48:29;;;;;;;6.53;2.28;;;;;;;;;;4318822;33;20221;-78
2021/09/24 14:50:57;;;;;;;7.70;2.10;;;;;;;;;;4320512;33;20147;-77